createdAt,value
2019-01-05T00:00:32.398Z,28.57
2019-01-05T00:02:58.890Z,28.20
2019-01-05T00:05:25.564Z,54.30
2019-01-05T00:07:55.042Z,50.92
2019-01-05T00:10:21.831Z,43.40
2019-01-05T00:12:48.808Z,51.68
2019-01-05T00:15:15.593Z,49.40
2019-01-05T00:17:42.306Z,39.23
2019-01-05T00:20:09.231Z,38.00
2019-01-05T00:22:36.175Z,47.83
2019-01-05T00:25:02.927Z,25.90
2019-01-05T00:27:29.785Z,29.63
2019-01-05T00:29:56.637Z,18.57
2019-01-05T00:32:23.601Z,16.75
2019-01-05T00:34:50.573Z,20.17
2019-01-05T00:37:17.636Z,15.18
2019-01-05T00:39:44.320Z,18.02
2019-01-05T00:42:13.906Z,16.23
2019-01-05T00:44:40.593Z,14.13
2019-01-05T00:49:56.935Z,16.12
2019-01-05T00:52:24.201Z,13.85
2019-01-05T00:54:51.073Z,13.80
2019-01-05T00:57:19.553Z,14.30
2019-01-05T00:59:46.462Z,16.87
2019-01-05T01:02:13.396Z,17.25
2019-01-05T01:04:40.466Z,23.35
2019-01-05T01:07:07.540Z,29.90
2019-01-05T01:09:34.398Z,17.52
2019-01-05T01:12:01.575Z,26.42
2019-01-05T01:14:28.842Z,36.88
2019-01-05T01:16:55.921Z,24.15
2019-01-05T01:19:25.162Z,18.12
2019-01-05T01:21:51.601Z,18.17
2019-01-05T01:24:29.244Z,23.40
2019-01-05T01:26:56.481Z,22.13
2019-01-05T01:29:23.405Z,28.17
2019-01-05T01:31:52.695Z,21.57
2019-01-05T01:34:19.814Z,21.15
2019-01-05T01:36:49.749Z,22.27
2019-01-05T01:39:16.422Z,18.92
2019-01-05T01:41:45.022Z,18.42
2019-01-05T01:44:12.196Z,14.20
2019-01-05T01:46:39.776Z,10.80
2019-01-05T01:49:15.121Z,22.62
2019-01-05T01:51:44.364Z,27.87
2019-01-05T01:54:13.536Z,72.95
2019-01-05T01:56:41.860Z,51.60
2019-01-05T01:59:08.995Z,46.98
2019-01-05T02:01:37.223Z,54.20
2019-01-05T02:04:06.236Z,33.00
2019-01-05T02:06:35.498Z,31.07
2019-01-05T02:09:01.501Z,30.72
2019-01-05T02:11:29.495Z,39.58
2019-01-05T02:14:14.874Z,18.20
2019-01-05T02:16:51.136Z,26.68
2019-01-05T02:19:18.315Z,22.98
2019-01-05T02:21:45.279Z,17.17
2019-01-05T02:24:15.396Z,23.98
2019-01-05T02:26:42.760Z,17.80
2019-01-05T02:29:23.621Z,15.55
2019-01-05T02:31:52.578Z,19.02
2019-01-05T02:34:19.438Z,21.35
2019-01-05T02:36:46.637Z,18.07
2019-01-05T02:39:13.753Z,9.78
2019-01-05T02:41:40.856Z,14.30
2019-01-05T02:44:08.940Z,16.80
2019-01-05T02:46:36.124Z,13.90
2019-01-05T02:49:02.819Z,15.08
2019-01-05T02:51:29.741Z,14.05
2019-01-05T02:54:02.436Z,17.80
2019-01-05T02:56:29.199Z,11.08
2019-01-05T02:58:58.837Z,14.13
2019-01-05T03:01:28.559Z,8.93
2019-01-05T03:03:55.540Z,12.90
2019-01-05T03:06:27.064Z,11.08
2019-01-05T03:08:54.264Z,15.68
2019-01-05T03:11:21.130Z,12.82
2019-01-05T03:13:48.641Z,12.15
2019-01-05T03:16:15.580Z,12.13
2019-01-05T03:18:48.585Z,12.18
2019-01-05T03:21:15.860Z,13.80
2019-01-05T03:23:42.808Z,15.85
2019-01-05T03:26:09.795Z,13.00
2019-01-05T03:28:37.368Z,12.58
2019-01-05T03:31:04.550Z,10.20
2019-01-05T03:33:34.542Z,10.78
2019-01-05T03:36:01.454Z,9.58
2019-01-05T03:38:30.781Z,8.60
2019-01-05T03:40:56.917Z,14.10
2019-01-05T03:43:26.956Z,13.88
2019-01-05T03:45:54.000Z,7.03
2019-01-05T03:48:21.183Z,9.25
2019-01-05T03:50:48.166Z,18.30
2019-01-05T03:53:18.138Z,8.70
2019-01-05T03:55:46.217Z,7.15
2019-01-05T03:58:14.443Z,9.35
2019-01-05T04:00:41.341Z,6.95
2019-01-05T04:03:08.586Z,6.67
2019-01-05T04:05:43.058Z,5.40
2019-01-05T04:08:10.015Z,4.12
2019-01-05T04:10:36.979Z,7.17
2019-01-05T04:13:04.054Z,7.58
2019-01-05T04:15:30.913Z,4.33
2019-01-05T04:17:58.539Z,6.70
2019-01-05T04:20:25.437Z,12.10
2019-01-05T04:22:53.653Z,6.30
2019-01-05T04:25:20.734Z,5.22
2019-01-05T04:27:49.818Z,9.78
2019-01-05T04:30:18.035Z,8.10
2019-01-05T04:32:48.153Z,7.60
2019-01-05T04:35:15.126Z,5.80
2019-01-05T04:37:42.081Z,12.33
2019-01-05T04:40:08.883Z,8.05
2019-01-05T04:42:36.026Z,11.18
2019-01-05T04:45:02.902Z,12.05
2019-01-05T04:47:30.078Z,10.15
2019-01-05T04:49:56.941Z,10.78
2019-01-05T04:52:25.234Z,9.33
2019-01-05T04:54:53.535Z,9.80
2019-01-05T04:57:20.700Z,6.37
2019-01-05T04:59:48.181Z,7.03
2019-01-05T05:02:15.246Z,6.53
2019-01-05T05:04:44.259Z,5.50
2019-01-05T05:07:16.894Z,6.22
2019-01-05T05:09:43.720Z,7.33
2019-01-05T05:12:10.689Z,5.72
2019-01-05T05:14:37.661Z,4.72
2019-01-05T05:17:04.731Z,5.95
2019-01-05T05:19:40.692Z,8.48
2019-01-05T05:22:07.654Z,3.50
2019-01-05T05:24:36.063Z,6.45
2019-01-05T05:27:02.935Z,7.37
2019-01-05T05:29:29.898Z,5.55
2019-01-05T05:31:56.970Z,10.72
2019-01-05T05:34:24.334Z,5.33
2019-01-05T05:36:51.307Z,8.28
2019-01-05T05:39:28.905Z,8.10
2019-01-05T05:41:55.884Z,7.50
2019-01-05T05:44:24.264Z,6.20
2019-01-05T05:46:51.146Z,6.58
2019-01-05T05:49:18.713Z,4.67
2019-01-05T05:51:54.596Z,9.10
2019-01-05T05:54:21.959Z,7.45
2019-01-05T05:56:48.928Z,7.28
2019-01-05T05:59:16.080Z,6.08
2019-01-05T06:01:43.063Z,11.83
2019-01-05T06:04:14.138Z,10.10
2019-01-05T06:06:41.082Z,7.50
2019-01-05T06:09:09.185Z,5.25
2019-01-05T06:11:38.621Z,9.30
2019-01-05T06:14:12.025Z,15.30
2019-01-05T06:16:39.214Z,9.40
2019-01-05T06:19:06.369Z,17.65
2019-01-05T06:21:33.395Z,21.02
2019-01-05T06:24:01.316Z,11.48
2019-01-05T06:26:30.168Z,10.68
2019-01-05T06:31:32.077Z,12.13
2019-01-05T06:36:31.255Z,8.33
2019-01-05T06:38:59.586Z,6.35
2019-01-05T06:41:29.620Z,12.43
2019-01-05T06:43:56.997Z,11.85
2019-01-05T06:46:23.953Z,11.65
2019-01-05T06:48:50.954Z,16.90
2019-01-05T06:51:17.799Z,14.15
2019-01-05T06:53:44.954Z,18.05
2019-01-05T06:56:11.836Z,21.85
2019-01-05T06:58:40.731Z,30.45
2019-01-05T07:01:07.500Z,16.52
2019-01-05T07:03:34.478Z,16.90
2019-01-05T07:06:01.413Z,19.77
2019-01-05T07:08:28.396Z,18.30
2019-01-05T07:10:55.386Z,14.70
2019-01-05T07:13:22.435Z,20.02
2019-01-05T07:15:53.786Z,16.42
2019-01-05T07:18:18.246Z,20.55
2019-01-05T07:20:45.263Z,14.15
2019-01-05T07:23:12.046Z,7.97
2019-01-05T07:25:39.220Z,12.40
2019-01-05T07:28:06.087Z,10.53
2019-01-05T07:30:32.959Z,10.45
2019-01-05T07:33:00.244Z,7.85
2019-01-05T07:35:27.394Z,6.87
2019-01-05T07:38:01.313Z,7.37
2019-01-05T07:40:29.614Z,8.33
2019-01-05T07:42:56.473Z,15.45
2019-01-05T07:45:23.658Z,8.35
2019-01-05T07:47:50.719Z,6.85
2019-01-05T07:50:23.935Z,10.93
2019-01-05T07:52:51.098Z,12.90
2019-01-05T07:55:18.155Z,13.70
2019-01-05T07:57:46.718Z,22.62
2019-01-05T08:00:13.952Z,41.02
2019-01-05T08:02:40.913Z,40.60
2019-01-05T08:05:08.325Z,34.65
2019-01-05T08:07:35.665Z,47.67
2019-01-05T08:10:02.472Z,27.07
2019-01-05T08:12:29.164Z,23.50
2019-01-05T08:14:56.256Z,17.07
2019-01-05T08:17:23.149Z,20.88
2019-01-05T08:19:49.928Z,15.80
2019-01-05T08:22:16.545Z,13.20
2019-01-05T08:24:43.242Z,12.23
2019-01-05T08:27:09.794Z,11.48
2019-01-05T08:29:36.500Z,11.33
2019-01-05T08:32:03.084Z,12.20
2019-01-05T08:34:29.818Z,12.13
2019-01-05T08:36:56.601Z,14.23
2019-01-05T08:39:23.406Z,9.93
2019-01-05T08:41:49.976Z,15.83
2019-01-05T08:44:16.754Z,16.37
2019-01-05T08:46:43.283Z,15.00
2019-01-05T08:49:09.875Z,10.63
2019-01-05T08:51:36.593Z,14.95
2019-01-05T08:54:03.249Z,11.48
2019-01-05T08:56:29.935Z,16.17
2019-01-05T08:58:56.635Z,15.65
2019-01-05T09:01:23.388Z,25.80
2019-01-05T09:03:50.127Z,21.95
2019-01-05T09:06:16.837Z,24.00
2019-01-05T09:08:43.398Z,24.77
2019-01-05T09:11:10.094Z,18.37
2019-01-05T09:13:36.625Z,26.27
2019-01-05T09:16:03.388Z,24.57
2019-01-05T09:18:30.042Z,33.20
2019-01-05T09:20:56.790Z,26.48
2019-01-05T09:23:23.490Z,30.08
2019-01-05T09:25:50.308Z,21.85
2019-01-05T09:28:16.828Z,27.13
2019-01-05T09:30:43.409Z,25.00
2019-01-05T09:33:10.108Z,19.67
2019-01-05T09:35:36.829Z,23.10
2019-01-05T09:38:03.509Z,20.60
2019-01-05T09:40:30.616Z,21.17
2019-01-05T09:42:57.410Z,23.42
2019-01-05T09:45:26.469Z,22.35
2019-01-05T09:47:53.333Z,33.13
2019-01-05T09:50:20.431Z,21.93
2019-01-05T09:52:47.284Z,18.82
2019-01-05T09:55:14.442Z,19.67
2019-01-05T09:57:41.407Z,20.60
2019-01-05T10:00:08.684Z,21.27
2019-01-05T10:02:35.763Z,21.33
2019-01-05T10:05:02.616Z,17.30
2019-01-05T10:07:29.477Z,22.87
2019-01-05T10:09:56.756Z,17.30
2019-01-05T10:12:23.619Z,16.30
2019-01-05T10:14:50.816Z,14.58
2019-01-05T10:17:17.833Z,18.60
2019-01-05T10:19:44.952Z,17.70
2019-01-05T10:22:11.994Z,14.30
2019-01-05T10:24:39.895Z,10.78
2019-01-05T10:27:06.857Z,24.43
2019-01-05T10:29:33.824Z,11.33
2019-01-05T10:32:00.796Z,10.30
2019-01-05T10:34:27.755Z,16.17
2019-01-05T10:36:54.855Z,9.20
2019-01-05T10:39:21.914Z,8.60
2019-01-05T10:41:48.854Z,7.12
2019-01-05T10:44:16.453Z,11.25
2019-01-05T10:46:43.607Z,135.18
2019-01-05T10:49:10.277Z,57.53
2019-01-05T10:51:37.248Z,16.00
2019-01-05T10:54:04.198Z,17.73
2019-01-05T10:56:31.482Z,15.70
2019-01-05T10:58:58.279Z,25.95
2019-01-05T11:01:25.208Z,19.57
2019-01-05T11:03:52.127Z,18.07
2019-01-05T11:06:19.358Z,13.58
2019-01-05T11:08:46.326Z,18.25
2019-01-05T11:11:13.723Z,17.12
2019-01-05T11:13:55.905Z,17.23
2019-01-05T11:16:22.861Z,19.98
2019-01-05T11:18:49.841Z,13.32
2019-01-05T11:21:19.726Z,13.48
2019-01-05T11:23:49.654Z,12.25
2019-01-05T11:26:16.833Z,11.08
2019-01-05T11:28:43.743Z,9.33
2019-01-05T11:31:10.533Z,8.45
2019-01-05T11:33:39.213Z,7.20
2019-01-05T11:36:05.873Z,5.67
2019-01-05T11:38:32.753Z,5.55
2019-01-05T11:40:59.713Z,7.50
2019-01-05T11:43:27.348Z,7.72
2019-01-05T11:45:54.253Z,8.60
2019-01-05T11:48:21.094Z,5.80
2019-01-05T11:50:48.091Z,10.90
2019-01-05T11:53:14.934Z,9.70
2019-01-05T11:55:42.223Z,5.58
2019-01-05T11:58:08.972Z,13.93
2019-01-05T12:00:36.001Z,9.18
2019-01-05T12:03:02.911Z,8.38
2019-01-05T12:05:30.290Z,7.37
2019-01-05T12:07:57.276Z,14.93
2019-01-05T12:10:24.021Z,9.10
2019-01-05T12:12:51.088Z,9.00
2019-01-05T12:15:19.381Z,10.00
2019-01-05T12:17:46.390Z,14.43
2019-01-05T12:20:13.316Z,8.58
2019-01-05T12:22:40.074Z,9.45
2019-01-05T12:25:07.054Z,11.95
2019-01-05T12:27:34.129Z,9.85
2019-01-05T12:30:00.909Z,11.63
2019-01-05T12:32:27.769Z,9.45
2019-01-05T12:34:54.529Z,12.33
2019-01-05T12:37:21.592Z,7.70
2019-01-05T12:39:51.508Z,8.35
2019-01-05T12:42:18.492Z,13.03
2019-01-05T12:44:45.368Z,11.05
2019-01-05T12:47:12.448Z,12.68
2019-01-05T12:49:39.127Z,7.95
2019-01-05T12:52:06.108Z,9.98
2019-01-05T12:54:33.106Z,11.00
2019-01-05T12:57:00.057Z,12.13
2019-01-05T12:59:26.788Z,10.00
2019-01-05T13:01:57.638Z,7.85
2019-01-05T13:04:24.418Z,12.88
2019-01-05T13:06:51.197Z,10.08
2019-01-05T13:09:18.073Z,10.10
2019-01-05T13:11:44.956Z,9.23
2019-01-05T13:14:11.732Z,11.53
2019-01-05T13:16:38.663Z,7.15
2019-01-05T13:19:05.756Z,5.72
2019-01-05T13:21:32.630Z,10.30
2019-01-05T13:23:59.475Z,8.85
2019-01-05T13:26:26.466Z,9.53
2019-01-05T13:28:53.418Z,8.05
2019-01-05T13:31:20.242Z,7.10
2019-01-05T13:33:47.190Z,8.50
2019-01-05T13:36:14.103Z,8.55
2019-01-05T13:38:41.209Z,7.65
2019-01-05T13:41:08.429Z,179.75
2019-01-05T13:43:35.314Z,92.92
2019-01-05T13:46:02.395Z,11.63
2019-01-05T13:48:29.072Z,11.08
2019-01-05T13:51:00.326Z,12.23
2019-01-05T13:53:27.040Z,8.53
2019-01-05T13:55:53.846Z,5.22
2019-01-05T14:00:51.962Z,7.28
2019-01-05T14:03:19.011Z,18.25
2019-01-05T14:05:45.833Z,30.55
2019-01-05T14:08:12.856Z,24.05
2019-01-05T14:10:39.835Z,15.83
2019-01-05T14:13:06.687Z,39.55
2019-01-05T14:15:33.664Z,49.35
2019-01-05T14:18:00.425Z,45.30
2019-01-05T14:20:29.944Z,43.92
2019-01-05T14:22:56.803Z,40.12
2019-01-05T14:25:24.207Z,39.27
2019-01-05T14:27:50.799Z,43.58
2019-01-05T14:30:17.595Z,34.65
2019-01-05T14:32:45.004Z,30.95
2019-01-05T14:35:11.901Z,34.30
2019-01-05T14:37:38.816Z,38.88
2019-01-05T14:40:05.890Z,30.70
2019-01-05T14:42:33.210Z,26.85
2019-01-05T14:45:00.170Z,37.88
2019-01-05T14:47:26.958Z,29.98
2019-01-05T14:49:53.763Z,22.40
2019-01-05T14:52:20.811Z,28.85
2019-01-05T14:54:47.593Z,19.85
2019-01-05T14:57:14.416Z,20.08
2019-01-05T14:59:41.523Z,16.48
2019-01-05T15:02:08.288Z,16.17
2019-01-05T15:04:35.354Z,17.67
2019-01-05T15:07:02.393Z,17.32
2019-01-05T15:09:29.173Z,16.40
2019-01-05T15:11:57.617Z,13.43
2019-01-05T15:14:24.554Z,20.25
2019-01-05T15:16:51.512Z,61.90
2019-01-05T15:19:18.176Z,87.55
2019-01-05T15:21:45.140Z,154.40
2019-01-05T15:24:12.003Z,43.58
2019-01-05T15:26:39.133Z,28.62
2019-01-05T15:29:10.247Z,105.55
2019-01-05T15:31:34.886Z,59.58
2019-01-05T15:34:01.831Z,100.58
2019-01-05T15:36:28.895Z,60.33
2019-01-05T15:38:55.675Z,52.85
2019-01-05T15:41:22.415Z,60.83
2019-01-05T15:43:49.183Z,34.38
2019-01-05T15:46:15.826Z,66.60
2019-01-05T15:48:43.115Z,54.20
2019-01-05T15:51:09.880Z,88.52
2019-01-05T15:53:36.802Z,130.18
2019-01-05T15:56:03.581Z,110.12
2019-01-05T15:58:30.872Z,64.40
2019-01-05T16:00:57.538Z,98.22
2019-01-05T16:03:24.311Z,151.07
2019-01-05T16:05:51.163Z,56.15
2019-01-05T16:08:18.044Z,52.15
2019-01-05T16:10:46.526Z,48.05
2019-01-05T16:13:13.364Z,47.73
2019-01-05T16:15:40.169Z,47.98
2019-01-05T16:18:07.223Z,41.23
2019-01-05T16:20:34.103Z,38.38
2019-01-05T16:23:00.971Z,33.90
2019-01-05T16:25:27.923Z,35.83
2019-01-05T16:27:55.002Z,38.65
2019-01-05T16:30:21.787Z,32.63
2019-01-05T16:32:48.620Z,34.00
2019-01-05T16:35:15.590Z,43.68
2019-01-05T16:37:42.451Z,31.95
2019-01-05T16:40:09.319Z,26.55
2019-01-05T16:42:36.199Z,114.55
2019-01-05T16:45:03.090Z,50.70
2019-01-05T16:47:30.009Z,23.07
2019-01-05T16:49:56.863Z,18.40
2019-01-05T16:52:24.142Z,25.00
2019-01-05T16:54:53.906Z,26.37
2019-01-05T16:57:21.184Z,99.28
2019-01-05T16:59:47.904Z,169.85
2019-01-05T17:02:15.592Z,154.50
2019-01-05T17:04:44.952Z,109.87
2019-01-05T17:07:17.013Z,87.15
2019-01-05T17:09:44.486Z,201.12
2019-01-05T17:12:11.428Z,96.85
2019-01-05T17:14:38.599Z,58.52
2019-01-05T17:17:05.697Z,265.43
2019-01-05T17:19:36.549Z,80.53
2019-01-05T17:22:01.641Z,46.05
2019-01-05T17:24:28.746Z,43.92
2019-01-05T17:26:55.707Z,27.90
2019-01-05T17:29:22.679Z,30.35
2019-01-05T17:31:49.753Z,18.55
2019-01-05T17:34:16.783Z,21.33
2019-01-05T17:36:43.882Z,16.62
2019-01-05T17:39:10.748Z,17.60
2019-01-05T17:41:37.700Z,18.70
2019-01-05T17:44:04.873Z,15.28
2019-01-05T17:46:31.776Z,16.90
2019-01-05T17:48:58.813Z,13.18
2019-01-05T17:51:25.601Z,22.87
2019-01-05T17:53:52.753Z,21.30
2019-01-05T17:56:19.611Z,51.63
2019-01-05T17:58:46.989Z,27.22
2019-01-05T18:01:14.085Z,26.23
2019-01-05T18:03:41.187Z,17.02
2019-01-05T18:06:08.303Z,24.43
2019-01-05T18:08:35.560Z,62.70
2019-01-05T18:11:02.543Z,81.67
2019-01-05T18:13:29.323Z,92.08
2019-01-05T18:16:06.309Z,36.33
2019-01-05T18:18:33.511Z,32.40
2019-01-05T18:21:00.460Z,69.27
2019-01-05T18:23:27.403Z,58.70
2019-01-05T18:25:54.267Z,104.53
2019-01-05T18:28:21.350Z,109.95
2019-01-05T18:30:48.305Z,84.70
2019-01-05T18:33:15.147Z,71.00
2019-01-05T18:35:41.999Z,169.40
2019-01-05T18:38:09.213Z,126.05
2019-01-05T18:40:36.182Z,115.17
2019-01-05T18:43:03.243Z,94.25
2019-01-05T18:45:30.232Z,93.03
2019-01-05T18:47:57.085Z,85.38
2019-01-05T18:50:24.243Z,95.62
2019-01-05T18:52:51.023Z,68.30
2019-01-05T18:55:18.078Z,77.72
2019-01-05T18:57:44.958Z,67.53
2019-01-05T19:00:12.052Z,58.08
2019-01-05T19:02:39.005Z,71.22
2019-01-05T19:05:05.981Z,83.90
2019-01-05T19:07:33.036Z,78.37
2019-01-05T19:10:00.008Z,70.37
2019-01-05T19:12:26.984Z,60.63
2019-01-05T19:14:53.769Z,66.42
2019-01-05T19:17:20.488Z,65.17
2019-01-05T19:19:47.309Z,51.05
2019-01-05T19:22:14.129Z,40.60
2019-01-05T19:24:41.250Z,42.35
2019-01-05T19:27:07.950Z,29.37
2019-01-05T19:29:34.551Z,30.43
2019-01-05T19:32:01.134Z,24.87
2019-01-05T19:34:27.769Z,21.50
2019-01-05T19:36:54.450Z,20.25
2019-01-05T19:39:21.001Z,25.12
2019-01-05T19:41:47.699Z,23.85
2019-01-05T19:44:14.296Z,18.50
2019-01-05T19:46:40.950Z,31.10
2019-01-05T19:49:07.516Z,25.85
2019-01-05T19:51:34.469Z,25.95
2019-01-05T19:54:01.133Z,20.90
2019-01-05T19:56:27.667Z,26.62
2019-01-05T19:58:54.249Z,26.90
2019-01-05T20:01:20.836Z,24.55
2019-01-05T20:03:47.537Z,34.67
2019-01-05T20:06:14.156Z,31.10
2019-01-05T20:08:40.716Z,36.80
2019-01-05T20:11:07.310Z,37.28
2019-01-05T20:13:33.909Z,35.08
2019-01-05T20:16:00.369Z,52.35
2019-01-05T20:18:26.989Z,161.45
2019-01-05T20:20:53.618Z,74.42
2019-01-05T20:23:20.229Z,113.55
2019-01-05T20:25:46.799Z,127.90
2019-01-05T20:28:13.419Z,128.05
2019-01-05T20:30:40.059Z,91.42
2019-01-05T20:33:06.675Z,54.53
2019-01-05T20:35:33.175Z,48.52
2019-01-05T20:37:59.776Z,51.88
2019-01-05T20:40:26.274Z,54.40
2019-01-05T20:42:53.038Z,58.68
2019-01-05T20:45:20.680Z,53.42
2019-01-05T20:47:47.621Z,49.73
2019-01-05T20:50:14.148Z,45.80
2019-01-05T20:52:40.828Z,30.57
2019-01-05T20:55:07.408Z,37.25
2019-01-05T20:57:33.948Z,34.80
2019-01-05T21:00:00.495Z,22.00
2019-01-05T21:02:27.094Z,26.73
2019-01-05T21:04:53.775Z,25.00
2019-01-05T21:07:20.436Z,33.55
2019-01-05T21:09:47.095Z,29.00
2019-01-05T21:12:13.777Z,27.62
2019-01-05T21:14:40.396Z,24.82
2019-01-05T21:17:07.017Z,41.90
2019-01-05T21:19:33.611Z,37.05
2019-01-05T21:22:00.229Z,50.78
2019-01-05T21:24:26.749Z,83.17
2019-01-05T21:26:53.351Z,93.37
2019-01-05T21:29:19.915Z,123.35
2019-01-05T21:31:46.613Z,107.37
2019-01-05T21:34:13.169Z,87.67
2019-01-05T21:36:39.776Z,71.12
2019-01-05T21:39:06.459Z,66.33
2019-01-05T21:41:33.227Z,64.82
2019-01-05T21:43:59.767Z,41.02
2019-01-05T21:46:26.328Z,41.13
2019-01-05T21:48:53.153Z,34.78
2019-01-05T21:51:19.833Z,41.75
2019-01-05T21:53:46.533Z,51.68
2019-01-05T21:56:13.189Z,37.90
2019-01-05T21:58:39.809Z,49.63
2019-01-05T22:01:06.449Z,47.83
2019-01-05T22:03:33.169Z,47.40
2019-01-05T22:05:59.729Z,49.00
2019-01-05T22:08:26.369Z,40.65
2019-01-05T22:10:52.910Z,47.70
2019-01-05T22:13:19.489Z,42.53
2019-01-05T22:15:46.151Z,55.85
2019-01-05T22:18:12.655Z,55.83
2019-01-05T22:20:39.269Z,54.65
2019-01-05T22:23:05.822Z,52.30
2019-01-05T22:25:32.449Z,58.85
2019-01-05T22:27:59.170Z,55.40
2019-01-05T22:30:25.988Z,44.55
2019-01-05T22:32:55.383Z,41.65
2019-01-05T22:35:22.104Z,42.20
2019-01-05T22:37:48.690Z,37.90
2019-01-05T22:40:15.414Z,35.10
2019-01-05T22:42:41.954Z,34.38
2019-01-05T22:45:08.867Z,33.08
2019-01-05T22:47:35.420Z,28.90
2019-01-05T22:50:01.989Z,32.33
2019-01-05T22:52:28.608Z,29.85
2019-01-05T22:54:55.275Z,25.23
2019-01-05T22:57:21.988Z,29.72
2019-01-05T22:59:48.639Z,27.48
2019-01-05T23:02:15.226Z,23.07
2019-01-05T23:04:41.743Z,28.30
2019-01-05T23:07:08.346Z,25.30
2019-01-05T23:09:34.848Z,22.13
2019-01-05T23:12:01.456Z,30.15
2019-01-05T23:14:28.296Z,30.43
2019-01-05T23:16:54.923Z,23.87
2019-01-05T23:19:21.636Z,35.25
2019-01-05T23:21:48.154Z,35.80
2019-01-05T23:24:14.779Z,43.25
2019-01-05T23:26:41.438Z,68.87
2019-01-05T23:29:14.874Z,69.97
2019-01-05T23:31:36.482Z,81.87
2019-01-05T23:34:03.178Z,49.83
2019-01-05T23:36:29.952Z,56.90
2019-01-05T23:38:56.804Z,51.48
2019-01-05T23:41:23.470Z,52.85
2019-01-05T23:43:50.151Z,52.03
2019-01-05T23:46:16.863Z,37.90
2019-01-05T23:48:43.396Z,37.23
2019-01-05T23:51:10.208Z,24.92
2019-01-05T23:53:36.809Z,23.87
2019-01-05T23:56:03.386Z,29.48
2019-01-05T23:58:30.136Z,22.48
